sensor_id;sensor_type;location;lat;lon;timestamp;pressure;altitude;pressure_sealevel;temperature;humidity
60852;BME280;48553;50.766;2.900;2023-02-12T00:01:50;103135.63;;;7.52;90.58
60852;BME280;48553;50.766;2.900;2023-02-12T00:04:51;103139.69;;;7.49;90.67
60852;BME280;48553;50.766;2.900;2023-02-12T00:07:52;103145.97;;;7.50;90.67
60852;BME280;48553;50.766;2.900;2023-02-12T00:10:52;103135.06;;;7.50;90.64
60852;BME280;48553;50.766;2.900;2023-02-12T00:13:54;103135.28;;;7.48;90.68
60852;BME280;48553;50.766;2.900;2023-02-12T00:16:55;103133.13;;;7.50;90.62
60852;BME280;48553;50.766;2.900;2023-02-12T00:19:55;103126.03;;;7.49;90.94
60852;BME280;48553;50.766;2.900;2023-02-12T00:22:56;103125.78;;;7.51;90.44
60852;BME280;48553;50.766;2.900;2023-02-12T00:25:56;103128.50;;;7.51;90.50
60852;BME280;48553;50.766;2.900;2023-02-12T00:28:57;103120.03;;;7.47;90.80
60852;BME280;48553;50.766;2.900;2023-02-12T00:31:57;103114.03;;;7.50;90.42
60852;BME280;48553;50.766;2.900;2023-02-12T00:34:57;103117.88;;;7.49;90.61
60852;BME280;48553;50.766;2.900;2023-02-12T00:37:58;103118.94;;;7.48;90.79
60852;BME280;48553;50.766;2.900;2023-02-12T00:40:58;103114.00;;;7.45;90.84
60852;BME280;48553;50.766;2.900;2023-02-12T00:43:59;103111.25;;;7.45;90.60
60852;BME280;48553;50.766;2.900;2023-02-12T00:46:59;103114.00;;;7.45;90.62
60852;BME280;48553;50.766;2.900;2023-02-12T00:50:01;103108.25;;;7.47;90.71
60852;BME280;48553;50.766;2.900;2023-02-12T00:53:02;103115.63;;;7.46;90.93
60852;BME280;48553;50.766;2.900;2023-02-12T00:56:03;103111.84;;;7.47;90.67
60852;BME280;48553;50.766;2.900;2023-02-12T00:59:03;103110.97;;;7.47;90.81
60852;BME280;48553;50.766;2.900;2023-02-12T01:02:04;103114.56;;;7.47;90.84
60852;BME280;48553;50.766;2.900;2023-02-12T01:05:05;103117.53;;;7.46;90.75
60852;BME280;48553;50.766;2.900;2023-02-12T01:08:05;103119.44;;;7.45;90.51
60852;BME280;48553;50.766;2.900;2023-02-12T01:11:06;103115.34;;;7.43;90.94
60852;BME280;48553;50.766;2.900;2023-02-12T01:14:07;103119.69;;;7.44;90.85
60852;BME280;48553;50.766;2.900;2023-02-12T01:17:08;103114.00;;;7.45;90.66
60852;BME280;48553;50.766;2.900;2023-02-12T01:20:14;103114.00;;;7.45;90.46
60852;BME280;48553;50.766;2.900;2023-02-12T01:23:16;103125.97;;;7.44;90.71
60852;BME280;48553;50.766;2.900;2023-02-12T01:26:18;103123.25;;;7.44;90.68
60852;BME280;48553;50.766;2.900;2023-02-12T01:29:18;103122.66;;;7.42;90.72
60852;BME280;48553;50.766;2.900;2023-02-12T01:32:19;103118.06;;;7.43;90.91
60852;BME280;48553;50.766;2.900;2023-02-12T01:35:19;103117.50;;;7.41;90.82
60852;BME280;48553;50.766;2.900;2023-02-12T01:38:19;103119.94;;;7.42;90.75
60852;BME280;48553;50.766;2.900;2023-02-12T01:41:22;103112.84;;;7.41;90.55
60852;BME280;48553;50.766;2.900;2023-02-12T01:44:27;103115.81;;;7.40;90.92
60852;BME280;48553;50.766;2.900;2023-02-12T01:47:28;103117.72;;;7.39;90.75
60852;BME280;48553;50.766;2.900;2023-02-12T01:50:28;103119.38;;;7.40;90.89
60852;BME280;48553;50.766;2.900;2023-02-12T01:53:33;103129.47;;;7.40;90.94
60852;BME280;48553;50.766;2.900;2023-02-12T01:56:35;103125.66;;;7.41;90.68
60852;BME280;48553;50.766;2.900;2023-02-12T01:59:36;103117.97;;;7.38;90.68
60852;BME280;48553;50.766;2.900;2023-02-12T02:02:38;103114.44;;;7.37;90.75
60852;BME280;48553;50.766;2.900;2023-02-12T02:05:43;103118.81;;;7.38;90.96
60852;BME280;48553;50.766;2.900;2023-02-12T02:08:46;103125.34;;;7.37;91.12
60852;BME280;48553;50.766;2.900;2023-02-12T02:11:48;103113.63;;;7.37;90.62
60852;BME280;48553;50.766;2.900;2023-02-12T02:15:07;103110.66;;;7.38;90.56
60852;BME280;48553;50.766;2.900;2023-02-12T02:18:12;103108.16;;;7.37;90.78
60852;BME280;48553;50.766;2.900;2023-02-12T02:28:01;103122.03;;;7.35;90.88
60852;BME280;48553;50.766;2.900;2023-02-12T02:31:29;103130.22;;;7.35;90.65
60852;BME280;48553;50.766;2.900;2023-02-12T02:37:48;103119.31;;;7.35;90.71
60852;BME280;48553;50.766;2.900;2023-02-12T02:41:07;103117.13;;;7.32;90.90
60852;BME280;48553;50.766;2.900;2023-02-12T02:44:22;103121.22;;;7.35;91.02
60852;BME280;48553;50.766;2.900;2023-02-12T02:47:31;103116.88;;;7.34;90.90
60852;BME280;48553;50.766;2.900;2023-02-12T02:50:34;103115.78;;;7.35;90.80
60852;BME280;48553;50.766;2.900;2023-02-12T02:53:42;103111.41;;;7.34;90.86
60852;BME280;48553;50.766;2.900;2023-02-12T02:56:47;103117.13;;;7.32;90.91
60852;BME280;48553;50.766;2.900;2023-02-12T02:59:53;103103.47;;;7.32;90.75
60852;BME280;48553;50.766;2.900;2023-02-12T03:02:58;103101.00;;;7.30;91.13
60852;BME280;48553;50.766;2.900;2023-02-12T03:06:10;103105.63;;;7.30;91.00
60852;BME280;48553;50.766;2.900;2023-02-12T03:09:22;103104.53;;;7.31;91.02
60852;BME280;48553;50.766;2.900;2023-02-12T03:12:47;103099.34;;;7.29;91.21
60852;BME280;48553;50.766;2.900;2023-02-12T03:19:01;103105.38;;;7.31;90.72
60852;BME280;48553;50.766;2.900;2023-02-12T03:22:08;103104.81;;;7.29;90.88
60852;BME280;48553;50.766;2.900;2023-02-12T03:25:15;103104.81;;;7.29;90.80
60852;BME280;48553;50.766;2.900;2023-02-12T03:28:25;103092.22;;;7.28;90.75
60852;BME280;48553;50.766;2.900;2023-02-12T03:35:09;103103.41;;;7.27;91.23
60852;BME280;48553;50.766;2.900;2023-02-12T03:41:31;103106.97;;;7.27;91.16
60852;BME280;48553;50.766;2.900;2023-02-12T03:48:01;103092.00;;;7.30;90.76
60852;BME280;48553;50.766;2.900;2023-02-12T03:54:36;103093.31;;;7.27;90.74
60852;BME280;48553;50.766;2.900;2023-02-12T03:57:41;103092.22;;;7.28;90.86
60852;BME280;48553;50.766;2.900;2023-02-12T04:00:43;103090.34;;;7.29;90.90
60852;BME280;48553;50.766;2.900;2023-02-12T04:03:43;103106.16;;;7.27;90.83
60852;BME280;48553;50.766;2.900;2023-02-12T04:06:45;103104.25;;;7.27;90.80
60852;BME280;48553;50.766;2.900;2023-02-12T04:09:48;103102.00;;;7.24;90.98
60852;BME280;48553;50.766;2.900;2023-02-12T04:12:59;103096.31;;;7.26;91.05
60852;BME280;48553;50.766;2.900;2023-02-12T04:16:12;103101.75;;;7.26;90.72
60852;BME280;48553;50.766;2.900;2023-02-12T04:19:21;103103.66;;;7.25;90.75
60852;BME280;48553;50.766;2.900;2023-02-12T04:35:35;103107.47;;;7.24;90.63
60852;BME280;48553;50.766;2.900;2023-02-12T04:38:43;103108.31;;;7.25;90.87
60852;BME280;48553;50.766;2.900;2023-02-12T04:41:45;103105.56;;;7.25;90.47
60852;BME280;48553;50.766;2.900;2023-02-12T04:44:47;103107.47;;;7.24;90.67
60852;BME280;48553;50.766;2.900;2023-02-12T04:47:48;103109.88;;;7.21;90.63
60852;BME280;48553;50.766;2.900;2023-02-12T04:50:48;103103.91;;;7.24;90.48
60852;BME280;48553;50.766;2.900;2023-02-12T04:53:49;103106.91;;;7.22;90.71
60852;BME280;48553;50.766;2.900;2023-02-12T04:56:50;103111.53;;;7.22;90.77
60852;BME280;48553;50.766;2.900;2023-02-12T04:59:50;103106.06;;;7.22;90.73
60852;BME280;48553;50.766;2.900;2023-02-12T05:02:50;103106.91;;;7.22;90.88
60852;BME280;48553;50.766;2.900;2023-02-12T05:05:51;103103.34;;;7.22;90.74
60852;BME280;48553;50.766;2.900;2023-02-12T05:08:55;103111.53;;;7.22;90.53
60852;BME280;48553;50.766;2.900;2023-02-12T05:11:55;103118.63;;;7.23;90.50
60852;BME280;48553;50.766;2.900;2023-02-12T05:14:56;103110.69;;;7.21;90.56
60852;BME280;48553;50.766;2.900;2023-02-12T05:17:57;103116.72;;;7.23;90.38
60852;BME280;48553;50.766;2.900;2023-02-12T05:20:59;103112.03;;;7.19;90.70
60852;BME280;48553;50.766;2.900;2023-02-12T05:24:01;103108.22;;;7.20;90.55
60852;BME280;48553;50.766;2.900;2023-02-12T05:27:02;103099.22;;;7.19;90.61
60852;BME280;48553;50.766;2.900;2023-02-12T05:30:03;103107.97;;;7.21;90.80
60852;BME280;48553;50.766;2.900;2023-02-12T05:33:04;103102.75;;;7.20;90.56
60852;BME280;48553;50.766;2.900;2023-02-12T05:36:11;103105.78;;;7.18;90.67
60852;BME280;48553;50.766;2.900;2023-02-12T05:39:12;103104.94;;;7.18;90.94
60852;BME280;48553;50.766;2.900;2023-02-12T05:42:12;103109.31;;;7.19;90.76
60852;BME280;48553;50.766;2.900;2023-02-12T05:45:12;103099.78;;;7.21;90.50
60852;BME280;48553;50.766;2.900;2023-02-12T05:48:13;103110.13;;;7.19;90.82
60852;BME280;48553;50.766;2.900;2023-02-12T05:51:22;103113.13;;;7.18;90.64
60852;BME280;48553;50.766;2.900;2023-02-12T05:54:23;103110.41;;;7.18;90.81
60852;BME280;48553;50.766;2.900;2023-02-12T05:57:23;103105.50;;;7.20;90.38
60852;BME280;48553;50.766;2.900;2023-02-12T06:00:23;103102.22;;;7.18;90.51
60852;BME280;48553;50.766;2.900;2023-02-12T06:03:24;103110.41;;;7.18;90.58
60852;BME280;48553;50.766;2.900;2023-02-12T06:06:25;103103.84;;;7.19;90.73
60852;BME280;48553;50.766;2.900;2023-02-12T06:09:26;103107.69;;;7.18;90.51
60852;BME280;48553;50.766;2.900;2023-02-12T06:12:27;103112.84;;;7.19;90.51
60852;BME280;48553;50.766;2.900;2023-02-12T06:15:27;103121.31;;;7.18;90.43
60852;BME280;48553;50.766;2.900;2023-02-12T06:18:28;103103.03;;;7.18;90.59
60852;BME280;48553;50.766;2.900;2023-02-12T06:21:29;103110.41;;;7.18;90.49
60852;BME280;48553;50.766;2.900;2023-02-12T06:24:30;103111.72;;;7.15;90.58
60852;BME280;48553;50.766;2.900;2023-02-12T06:27:30;103112.56;;;7.16;90.18
60852;BME280;48553;50.766;2.900;2023-02-12T06:30:33;103109.25;;;7.14;90.17
60852;BME280;48553;50.766;2.900;2023-02-12T06:33:34;103117.44;;;7.14;90.34
60852;BME280;48553;50.766;2.900;2023-02-12T06:36:37;103114.38;;;7.10;90.40
60852;BME280;48553;50.766;2.900;2023-02-12T06:39:38;103107.09;;;7.16;90.54
60852;BME280;48553;50.766;2.900;2023-02-12T06:42:38;103112.56;;;7.16;90.24
60852;BME280;48553;50.766;2.900;2023-02-12T06:45:38;103114.44;;;7.15;90.15
60852;BME280;48553;50.766;2.900;2023-02-12T06:48:39;103113.63;;;7.15;90.05
60852;BME280;48553;50.766;2.900;2023-02-12T06:51:40;103115.78;;;7.13;90.26
60852;BME280;48553;50.766;2.900;2023-02-12T06:54:41;103109.50;;;7.12;90.21
60852;BME280;48553;50.766;2.900;2023-02-12T06:57:41;103111.72;;;7.15;90.33
60852;BME280;48553;50.766;2.900;2023-02-12T07:00:42;103121.81;;;7.15;90.29
60852;BME280;48553;50.766;2.900;2023-02-12T07:03:46;103121.81;;;7.15;90.22
60852;BME280;48553;50.766;2.900;2023-02-12T07:06:47;103120.97;;;7.14;90.28
60852;BME280;48553;50.766;2.900;2023-02-12T07:09:48;103136.78;;;7.12;90.51
60852;BME280;48553;50.766;2.900;2023-02-12T07:12:48;103134.88;;;7.13;90.48
60852;BME280;48553;50.766;2.900;2023-02-12T07:15:48;103141.97;;;7.14;90.52
60852;BME280;48553;50.766;2.900;2023-02-12T07:18:49;103149.06;;;7.15;90.31
60852;BME280;48553;50.766;2.900;2023-02-12T07:21:49;103143.31;;;7.11;90.60
60852;BME280;48553;50.766;2.900;2023-02-12T07:24:50;103150.41;;;7.12;90.27
60852;BME280;48553;50.766;2.900;2023-02-12T07:27:51;103163.22;;;7.11;90.39
60852;BME280;48553;50.766;2.900;2023-02-12T07:30:51;103172.22;;;7.12;90.40
60852;BME280;48553;50.766;2.900;2023-02-12T07:33:53;103161.56;;;7.10;90.34
60852;BME280;48553;50.766;2.900;2023-02-12T07:36:54;103170.59;;;7.11;90.40
60852;BME280;48553;50.766;2.900;2023-02-12T07:39:54;103164.28;;;7.10;90.31
60852;BME280;48553;50.766;2.900;2023-02-12T07:42:55;103158.84;;;7.10;90.24
60852;BME280;48553;50.766;2.900;2023-02-12T07:45:55;103164.84;;;7.13;90.32
60852;BME280;48553;50.766;2.900;2023-02-12T07:48:57;103164.84;;;7.13;90.15
60852;BME280;48553;50.766;2.900;2023-02-12T07:51:58;103166.19;;;7.10;90.40
60852;BME280;48553;50.766;2.900;2023-02-12T07:54:58;103168.69;;;7.11;89.95
60852;BME280;48553;50.766;2.900;2023-02-12T07:57:59;103169.16;;;7.08;89.94
60852;BME280;48553;50.766;2.900;2023-02-12T08:00:59;103175.19;;;7.10;90.45
60852;BME280;48553;50.766;2.900;2023-02-12T08:04:08;103164.28;;;7.10;90.18
60852;BME280;48553;50.766;2.900;2023-02-12T08:07:09;103173.31;;;7.11;90.29
60852;BME280;48553;50.766;2.900;2023-02-12T08:10:10;103173.03;;;7.13;89.88
60852;BME280;48553;50.766;2.900;2023-02-12T08:13:10;103171.41;;;7.11;89.97
60852;BME280;48553;50.766;2.900;2023-02-12T08:16:16;103174.13;;;7.11;89.88
60852;BME280;48553;50.766;2.900;2023-02-12T08:19:18;103179.81;;;7.10;90.00
60852;BME280;48553;50.766;2.900;2023-02-12T08:22:18;103177.69;;;7.12;89.98
60852;BME280;48553;50.766;2.900;2023-02-12T08:25:19;103185.28;;;7.10;90.16
60852;BME280;48553;50.766;2.900;2023-02-12T08:28:19;103173.31;;;7.11;90.06
60852;BME280;48553;50.766;2.900;2023-02-12T08:31:23;103175.75;;;7.13;89.91
60852;BME280;48553;50.766;2.900;2023-02-12T08:34:25;103185.28;;;7.10;90.00
60852;BME280;48553;50.766;2.900;2023-02-12T08:37:26;103185.03;;;7.11;90.26
60852;BME280;48553;50.766;2.900;2023-02-12T08:40:27;103185.63;;;7.14;90.08
60852;BME280;48553;50.766;2.900;2023-02-12T08:43:27;103174.94;;;7.12;90.05
60852;BME280;48553;50.766;2.900;2023-02-12T08:46:33;103187.75;;;7.11;89.86
60852;BME280;48553;50.766;2.900;2023-02-12T08:49:33;103188.59;;;7.12;90.07
60852;BME280;48553;50.766;2.900;2023-02-12T08:52:34;103179.59;;;7.11;90.01
60852;BME280;48553;50.766;2.900;2023-02-12T08:55:35;103186.94;;;7.11;89.88
60852;BME280;48553;50.766;2.900;2023-02-12T08:58:36;103196.53;;;7.14;89.80
60852;BME280;48553;50.766;2.900;2023-02-12T09:01:38;103187.25;;;7.15;89.63
60852;BME280;48553;50.766;2.900;2023-02-12T09:04:40;103186.44;;;7.14;89.67
60852;BME280;48553;50.766;2.900;2023-02-12T09:07:40;103185.09;;;7.17;89.83
60852;BME280;48553;50.766;2.900;2023-02-12T09:10:42;103188.66;;;7.17;89.35
60852;BME280;48553;50.766;2.900;2023-02-12T09:13:45;103173.88;;;7.13;89.42
60852;BME280;48553;50.766;2.900;2023-02-12T09:16:46;103181.56;;;7.16;89.72
60852;BME280;48553;50.766;2.900;2023-02-12T09:19:46;103187.81;;;7.17;89.70
60852;BME280;48553;50.766;2.900;2023-02-12T09:22:46;103179.88;;;7.15;89.56
60852;BME280;48553;50.766;2.900;2023-02-12T09:25:47;103177.25;;;7.20;89.32
60852;BME280;48553;50.766;2.900;2023-02-12T09:28:48;103185.44;;;7.20;89.32
60852;BME280;48553;50.766;2.900;2023-02-12T09:31:49;103187.31;;;7.20;89.01
60852;BME280;48553;50.766;2.900;2023-02-12T09:34:49;103174.00;;;7.23;89.18
60852;BME280;48553;50.766;2.900;2023-02-12T09:37:51;103184.09;;;7.23;89.27
60852;BME280;48553;50.766;2.900;2023-02-12T09:45:06;103182.75;;;7.25;89.06
60852;BME280;48553;50.766;2.900;2023-02-12T09:51:31;103186.06;;;7.27;88.69
60852;BME280;48553;50.766;2.900;2023-02-12T09:54:37;103184.16;;;7.28;89.10
60852;BME280;48553;50.766;2.900;2023-02-12T09:57:38;103180.59;;;7.27;88.99
60852;BME280;48553;50.766;2.900;2023-02-12T10:00:38;103177.13;;;7.32;88.91
60852;BME280;48553;50.766;2.900;2023-02-12T10:03:39;103187.22;;;7.31;88.58
60852;BME280;48553;50.766;2.900;2023-02-12T10:07:08;103190.25;;;7.35;88.86
60852;BME280;48553;50.766;2.900;2023-02-12T10:24:10;103203.63;;;7.37;88.96
60852;BME280;48553;50.766;2.900;2023-02-12T10:27:21;103192.22;;;7.40;88.72
60852;BME280;48553;50.766;2.900;2023-02-12T10:33:40;103198.81;;;7.44;88.60
60852;BME280;48553;50.766;2.900;2023-02-12T10:36:43;103198.81;;;7.44;88.99
60852;BME280;48553;50.766;2.900;2023-02-12T10:39:54;103196.09;;;7.44;88.82
60852;BME280;48553;50.766;2.900;2023-02-12T10:42:56;103204.84;;;7.46;88.74
60852;BME280;48553;50.766;2.900;2023-02-12T10:45:57;103189.56;;;7.45;88.82
60852;BME280;48553;50.766;2.900;2023-02-12T10:48:59;103200.22;;;7.46;88.52
60852;BME280;48553;50.766;2.900;2023-02-12T10:58:26;103203.25;;;7.50;88.36
60852;BME280;48553;50.766;2.900;2023-02-12T11:01:35;103198.38;;;7.52;88.36
60852;BME280;48553;50.766;2.900;2023-02-12T11:07:48;103184.22;;;7.55;88.00
60852;BME280;48553;50.766;2.900;2023-02-12T11:10:49;103188.59;;;7.56;88.12
60852;BME280;48553;50.766;2.900;2023-02-12T11:14:04;103176.59;;;7.57;88.04
60852;BME280;48553;50.766;2.900;2023-02-12T11:17:04;103167.31;;;7.58;88.02
60852;BME280;48553;50.766;2.900;2023-02-12T11:23:27;103174.69;;;7.58;88.31
60852;BME280;48553;50.766;2.900;2023-02-12T11:26:28;103168.72;;;7.61;88.15
60852;BME280;48553;50.766;2.900;2023-02-12T11:29:29;103169.28;;;7.63;88.20
60852;BME280;48553;50.766;2.900;2023-02-12T11:32:32;103172.00;;;7.63;88.02
60852;BME280;48553;50.766;2.900;2023-02-12T11:35:33;103169.03;;;7.64;88.13
60852;BME280;48553;50.766;2.900;2023-02-12T11:38:37;103164.16;;;7.66;87.90
60852;BME280;48553;50.766;2.900;2023-02-12T11:41:40;103164.41;;;7.65;88.08
60852;BME280;48553;50.766;2.900;2023-02-12T11:44:47;103166.06;;;7.66;88.23
60852;BME280;48553;50.766;2.900;2023-02-12T11:47:49;103164.97;;;7.67;87.87
60852;BME280;48553;50.766;2.900;2023-02-12T11:50:52;103155.72;;;7.68;87.73
60852;BME280;48553;50.766;2.900;2023-02-12T11:53:56;103155.72;;;7.68;87.77
60852;BME280;48553;50.766;2.900;2023-02-12T11:56:57;103153.56;;;7.70;88.09
60852;BME280;48553;50.766;2.900;2023-02-12T12:00:00;103147.25;;;7.69;88.15
60852;BME280;48553;50.766;2.900;2023-02-12T12:03:22;103148.09;;;7.70;87.75
60852;BME280;48553;50.766;2.900;2023-02-12T12:06:34;103157.41;;;7.74;87.72
60852;BME280;48553;50.766;2.900;2023-02-12T12:09:50;103154.09;;;7.72;87.81
60852;BME280;48553;50.766;2.900;2023-02-12T12:12:58;103146.47;;;7.74;87.86
60852;BME280;48553;50.766;2.900;2023-02-12T12:16:09;103142.69;;;7.75;87.91
60852;BME280;48553;50.766;2.900;2023-02-12T12:19:37;103134.75;;;7.73;87.75
60852;BME280;48553;50.766;2.900;2023-02-12T12:23:16;103131.25;;;7.78;87.65
60852;BME280;48553;50.766;2.900;2023-02-12T12:26:23;103128.25;;;7.80;87.70
60852;BME280;48553;50.766;2.900;2023-02-12T12:29:32;103129.59;;;7.77;87.67
60852;BME280;48553;50.766;2.900;2023-02-12T12:32:40;103121.72;;;7.81;87.61
60852;BME280;48553;50.766;2.900;2023-02-12T12:46:00;103110.00;;;7.85;87.38
60852;BME280;48553;50.766;2.900;2023-02-12T12:49:16;103103.50;;;7.86;87.73
60852;BME280;48553;50.766;2.900;2023-02-12T12:52:52;103095.00;;;7.88;87.67
60852;BME280;48553;50.766;2.900;2023-02-12T12:56:17;103088.50;;;7.89;87.32
60852;BME280;48553;50.766;2.900;2023-02-12T13:09:47;103074.38;;;7.97;87.39
60852;BME280;48553;50.766;2.900;2023-02-12T13:13:12;103074.09;;;7.99;87.29
60852;BME280;48553;50.766;2.900;2023-02-12T13:16:28;103072.75;;;8.01;87.04
60852;BME280;48553;50.766;2.900;2023-02-12T13:19:46;103053.91;;;8.00;87.47
60852;BME280;48553;50.766;2.900;2023-02-12T13:26:09;103055.84;;;8.04;87.26
60852;BME280;48553;50.766;2.900;2023-02-12T13:29:23;103052.56;;;8.02;87.32
60852;BME280;48553;50.766;2.900;2023-02-12T13:32:32;103053.94;;;8.05;87.05
60852;BME280;48553;50.766;2.900;2023-02-12T13:35:38;103059.69;;;8.08;87.02
60852;BME280;48553;50.766;2.900;2023-02-12T13:38:49;103049.84;;;8.07;87.08
60852;BME280;48553;50.766;2.900;2023-02-12T13:41:59;103054.22;;;8.08;86.93
60852;BME280;48553;50.766;2.900;2023-02-12T13:55:22;103053.19;;;8.14;86.97
60852;BME280;48553;50.766;2.900;2023-02-12T14:01:40;103051.31;;;8.20;86.55
60852;BME280;48553;50.766;2.900;2023-02-12T14:07:57;103049.41;;;8.21;86.86
60852;BME280;48553;50.766;2.900;2023-02-12T14:11:10;103047.25;;;8.23;86.29
60852;BME280;48553;50.766;2.900;2023-02-12T14:14:11;103039.88;;;8.23;86.50
60852;BME280;48553;50.766;2.900;2023-02-12T14:20:39;103043.41;;;8.24;86.62
60852;BME280;48553;50.766;2.900;2023-02-12T14:23:44;103039.88;;;8.23;86.59
60852;BME280;48553;50.766;2.900;2023-02-12T14:26:50;103033.88;;;8.26;86.36
60852;BME280;48553;50.766;2.900;2023-02-12T14:30:00;103037.44;;;8.27;86.63
60852;BME280;48553;50.766;2.900;2023-02-12T14:39:28;103029.78;;;8.29;86.47
60852;BME280;48553;50.766;2.900;2023-02-12T14:45:36;103035.56;;;8.32;86.43
60852;BME280;48553;50.766;2.900;2023-02-12T14:48:55;103022.69;;;8.33;86.18
60852;BME280;48553;50.766;2.900;2023-02-12T14:52:06;103022.69;;;8.33;86.11
60852;BME280;48553;50.766;2.900;2023-02-12T14:58:25;103014.25;;;8.34;86.11
60852;BME280;48553;50.766;2.900;2023-02-12T15:01:32;103004.94;;;8.35;86.16
60852;BME280;48553;50.766;2.900;2023-02-12T15:04:36;103001.69;;;8.33;86.04
60852;BME280;48553;50.766;2.900;2023-02-12T15:07:45;103010.97;;;8.32;86.43
60852;BME280;48553;50.766;2.900;2023-02-12T15:10:50;103006.31;;;8.33;86.19
60852;BME280;48553;50.766;2.900;2023-02-12T15:17:21;102996.22;;;8.33;86.37
60852;BME280;48553;50.766;2.900;2023-02-12T15:20:29;103003.56;;;8.33;86.05
60852;BME280;48553;50.766;2.900;2023-02-12T15:23:42;102992.94;;;8.31;86.31
60852;BME280;48553;50.766;2.900;2023-02-12T15:26:46;102995.09;;;8.29;85.94
60852;BME280;48553;50.766;2.900;2023-02-12T15:29:50;102985.81;;;8.30;86.10
60852;BME280;48553;50.766;2.900;2023-02-12T15:32:57;102984.19;;;8.29;85.79
60852;BME280;48553;50.766;2.900;2023-02-12T15:36:00;102978.72;;;8.29;86.04
60852;BME280;48553;50.766;2.900;2023-02-12T15:39:07;102978.72;;;8.29;85.94
60852;BME280;48553;50.766;2.900;2023-02-12T15:42:30;102983.34;;;8.29;85.49
60852;BME280;48553;50.766;2.900;2023-02-12T15:45:33;102983.63;;;8.27;85.39
60852;BME280;48553;50.766;2.900;2023-02-12T15:48:36;102986.34;;;8.27;85.25
60852;BME280;48553;50.766;2.900;2023-02-12T15:51:38;102978.94;;;8.23;85.09
60852;BME280;48553;50.766;2.900;2023-02-12T15:54:43;102975.09;;;8.19;84.69
60852;BME280;48553;50.766;2.900;2023-02-12T15:57:55;102989.56;;;8.19;84.78
60852;BME280;48553;50.766;2.900;2023-02-12T16:01:02;102983.28;;;8.19;84.45
60852;BME280;48553;50.766;2.900;2023-02-12T16:04:07;102987.13;;;8.18;84.92
60852;BME280;48553;50.766;2.900;2023-02-12T16:07:09;102982.47;;;8.18;84.94
60852;BME280;48553;50.766;2.900;2023-02-12T16:10:14;102987.38;;;8.16;84.77
60852;BME280;48553;50.766;2.900;2023-02-12T16:13:18;102987.94;;;8.18;84.62
60852;BME280;48553;50.766;2.900;2023-02-12T16:16:23;102976.19;;;8.18;84.67
60852;BME280;48553;50.766;2.900;2023-02-12T16:19:31;102986.81;;;8.14;84.24
60852;BME280;48553;50.766;2.900;2023-02-12T16:22:36;102981.59;;;8.12;84.26
60852;BME280;48553;50.766;2.900;2023-02-12T16:25:37;102985.44;;;8.11;84.19
60852;BME280;48553;50.766;2.900;2023-02-12T16:28:39;102985.69;;;8.10;84.21
60852;BME280;48553;50.766;2.900;2023-02-12T16:31:55;102992.50;;;8.07;83.97
60852;BME280;48553;50.766;2.900;2023-02-12T16:35:36;102989.47;;;8.04;83.57
60852;BME280;48553;50.766;2.900;2023-02-12T16:38:51;102981.28;;;8.04;83.69
60852;BME280;48553;50.766;2.900;2023-02-12T16:41:55;102978.84;;;8.02;83.62
60852;BME280;48553;50.766;2.900;2023-02-12T16:44:56;102975.53;;;8.00;83.30
60852;BME280;48553;50.766;2.900;2023-02-12T16:48:14;102977.69;;;7.98;83.95
60852;BME280;48553;50.766;2.900;2023-02-12T16:51:45;102977.44;;;8.00;83.86
60852;BME280;48553;50.766;2.900;2023-02-12T16:54:45;102970.31;;;7.99;83.45
60852;BME280;48553;50.766;2.900;2023-02-12T16:57:46;102980.97;;;7.95;83.37
60852;BME280;48553;50.766;2.900;2023-02-12T17:00:47;102970.84;;;7.90;83.66
60852;BME280;48553;50.766;2.900;2023-02-12T17:03:49;102970.31;;;7.93;83.41
60852;BME280;48553;50.766;2.900;2023-02-12T17:06:50;102976.84;;;7.92;83.48
60852;BME280;48553;50.766;2.900;2023-02-12T17:09:51;102972.47;;;7.91;83.68
60852;BME280;48553;50.766;2.900;2023-02-12T17:12:52;102977.94;;;7.91;83.77
60852;BME280;48553;50.766;2.900;2023-02-12T17:15:55;102975.16;;;7.86;83.68
60852;BME280;48553;50.766;2.900;2023-02-12T17:18:56;102966.69;;;7.88;84.00
60852;BME280;48553;50.766;2.900;2023-02-12T17:21:56;102974.06;;;7.87;83.79
60852;BME280;48553;50.766;2.900;2023-02-12T17:24:57;102967.78;;;7.82;83.71
60852;BME280;48553;50.766;2.900;2023-02-12T17:27:57;102977.56;;;7.78;83.82
60852;BME280;48553;50.766;2.900;2023-02-12T17:30:58;102977.00;;;7.76;84.04
60852;BME280;48553;50.766;2.900;2023-02-12T17:34:01;102964.97;;;7.77;83.72
60852;BME280;48553;50.766;2.900;2023-02-12T17:37:03;102981.06;;;7.73;83.92
60852;BME280;48553;50.766;2.900;2023-02-12T17:40:04;102977.25;;;7.74;83.78
60852;BME280;48553;50.766;2.900;2023-02-12T17:43:06;102982.13;;;7.72;83.98
60852;BME280;48553;50.766;2.900;2023-02-12T17:46:11;102970.94;;;7.68;84.06
60852;BME280;48553;50.766;2.900;2023-02-12T17:49:12;102976.16;;;7.70;84.32
60852;BME280;48553;50.766;2.900;2023-02-12T17:52:12;102986.22;;;7.69;84.17
60852;BME280;48553;50.766;2.900;2023-02-12T17:55:13;102975.59;;;7.68;84.20
60852;BME280;48553;50.766;2.900;2023-02-12T17:58:14;102985.94;;;7.66;84.06
60852;BME280;48553;50.766;2.900;2023-02-12T18:01:19;102984.56;;;7.63;84.10
60852;BME280;48553;50.766;2.900;2023-02-12T18:04:20;102985.38;;;7.64;84.17
60852;BME280;48553;50.766;2.900;2023-02-12T18:07:21;102988.91;;;7.64;84.28
60852;BME280;48553;50.766;2.900;2023-02-12T18:10:21;102986.72;;;7.61;84.50
60852;BME280;48553;50.766;2.900;2023-02-12T18:13:21;102979.34;;;7.62;84.41
60852;BME280;48553;50.766;2.900;2023-02-12T18:16:24;102982.59;;;7.59;84.74
60852;BME280;48553;50.766;2.900;2023-02-12T18:19:26;102989.38;;;7.56;84.87
60852;BME280;48553;50.766;2.900;2023-02-12T18:22:26;102980.13;;;7.57;84.97
60852;BME280;48553;50.766;2.900;2023-02-12T18:25:27;102986.41;;;7.58;84.92
60852;BME280;48553;50.766;2.900;2023-02-12T18:28:27;102980.66;;;7.54;84.51
60852;BME280;48553;50.766;2.900;2023-02-12T18:31:28;102974.09;;;7.55;84.53
60852;BME280;48553;50.766;2.900;2023-02-12T18:34:29;102975.75;;;7.56;84.82